Armbrust, PA

8:24 PM EDT on August 20, 2014 (GMT -0400)
Midway St. Clair | Change Station
CLOSE
Current Station
Personal Weather Station
Location: Greensburg, PA
Elevation: 1135 ft
Nearby Weather Stations

Elev 1135 ft 40.27 °N, 79.56 °W | Updated 8 seconds ago

Mostly Cloudy
Mostly Cloudy
74.3 °F
Feels Like 73 °F
N
1.0
Wind Variable Wind from SSE
Gusts 1.0 mph

Today
High -- | Low -- °F
--% Chance of Precip.
Yesterday
High -- | Low -- °F
Precip. -- in
6:34 AM 8:08 PM
Waning Crescent, 18% visible
Pressure 29.98 in
Visibility 10.0 miles
Clouds Mostly Cloudy 9000 ft
Heat Index 73 °F
Dew Point 70 °F
Humidity 87%
Rainfall 0.94 in
Snow Depth Not available.
UV 0 out of 12
Pollen 7.70 out of 12
Air Quality Not available.
Flu Activity Not available.
METAR KLBE 202350Z 24005KT 10SM BKN090 24/22 A2998

More Conditions Fewer Conditions

Pressure 29.98 in
Visibility 10.0 miles
Clouds Mostly Cloudy 9000 ft
Heat Index 73 °F
Dew Point 70 °F
Humidity 87%
Rainfall 0.94 in
Snow Depth Not available.
UV 0 out of 12
Pollen 7.70 out of 12
Air Quality Not available.
Flu Activity Not available.
METAR KLBE 202350Z 24005KT 10SM BKN090 24/22 A2998

More Conditions Fewer Conditions

10-Day Weather Forecast

Almanac

Astronomy

Aug. 20, 2014 Rise Set
Actual Time 6:34 AM EDT 8:08 PM EDT
Civil Twilight 6:05 AM EDT 8:36 PM EDT
Nautical Twilight 5:30 AM EDT 9:11 PM EDT
Astronomical Twilight 4:53 AM EDT 9:48 PM EDT
Moon 2:12 AM EDT (8/20) 4:52 PM EDT (8/20)
Length of Visible Light 14h 31m
Length of Day
13h 34m
Tomorrow will be 2m 25s shorter.
Waning Crescent, 18% of the Moon is Illuminated
Today
Waning Crescent
Aug 25
New
Sep 2
First Quarter
Sep 8
Full
Sep 15
Last Quarter

Today's Extremes

State Highs State Lows

Community

WunderPhotos

Upload Photos

1,745,807 photos uploaded!

WunderBlogs® & News

Nearby

Snow Depth

Station Depth Elevation
No new snow has been reported.

Earthquake Activity

City Distance Mag. Time & Date
No recent earthquake activity has been reported nearby.
Minimum magnitude displayed is 2.5.

Coastal Water Temperatures

Place Temperature
No Stations Reporting

Nearby Weather Stations